Mount Hermon, Louisiana
Current Conditions -  °F | °C
As of 12:53 AM on Tuesday 21 Oct 2014 (Local Time) from KMCB Reporting Station
Clear Clear  
Wind Chill: 56°   Ceiling: Unl
Heat Index: 56°   Visibility: 10mi
Dew Point: 51°   Wind: 5mph
Humidity: 84%   Direction: 10°N
Pressure: 30.03"   Gusts: NA
Location:  30.96°N, 90.3°W
Report Text: KMCB 210553Z AUTO 01004KT 10SM CLR 13/11 A3003 RMK AO2 SLP165 T01330106 10178 20122 402440089 58003
Loading
Personal Weather Stations






























Interactive Weather Map
Tropical Storm Tracking
New forecast layout! Learn more

10-Day Weather Forecast

Advertisements
Track Severe Weather on mobile